FDMS/MTS METAR and TAF weather

Enter ICAO airport designator
Station Type Date Time Source
FDMS METAR 2018/07/19 07:00 UTC NOAA

FDMS 190700Z 28004KT CAVOK 11/05 Q1034 NOSIG


Station Type Date Time Source
FDMS Decoded METAR 2018/07/19 07:00 UTC NOAA

Manzini / Matsapa Airport, Swaziland (FDMS) 26-32S 031-18E
Jul 19, 2018 - 03:00 AM EDT / 2018.07.19 0700 UTC
Wind: from the W (280 degrees) at 5 MPH (4 KT):0
Visibility: greater than 7 mile(s):0
Temperature: 51 F (11 C)
Dew Point: 41 F (5 C)
Relative Humidity: 66%
Pressure (altimeter): 30.53 in. Hg (1034 hPa)
ob: FDMS 190700Z 28004KT CAVOK 11/05 Q1034 NOSIG
cycle: 7

Station Type Date Time Source
FDMS TAF 2018/07/05 18:48 UTC NOAA

TAF TAF FDMS 051600Z 0518/0618 14010KT 9999 BKN030
TEMPO 0601/0605 6000 BCFG SCT008 BKN020
BECMG 0609/0611 BKN035


Example: see airport list